Time;durP1;ratioP1;P1;durP2;ratioP2;P2;SDS_P1;SDS_P2;PMS_P1;PMS_P2;Temp;Humidity;BMP_temperature;BMP_pressure;BME280_temperature;BME280_humidity;BME280_pressure;Samples;Min_cycle;Max_cycle;Signal;HPM_P1;HPM_P2
2022/04/16 00:00:47;;;;;;;1.83;1.23;;;11.00;99.90;;;;;;5055462;28;20468;-65
2022/04/16 00:03:13;;;;;;;1.83;1.10;;;11.00;99.90;;;;;;5054795;28;20029;-65
2022/04/16 00:05:39;;;;;;;1.42;1.00;;;11.00;99.90;;;;;;5037566;28;20025;-66
2022/04/16 00:08:07;;;;;;;1.15;0.93;;;10.90;99.90;;;;;;5054944;28;20067;-65
2022/04/16 00:10:37;;;;;;;1.40;1.00;;;10.90;99.90;;;;;;5056495;28;20024;-65
2022/04/16 00:13:04;;;;;;;1.50;1.20;;;10.90;99.90;;;;;;5055332;28;20029;-66
2022/04/16 00:15:30;;;;;;;2.20;1.15;;;10.90;99.90;;;;;;5036723;28;20029;-64
2022/04/16 00:17:56;;;;;;;1.30;0.90;;;10.80;99.90;;;;;;5037373;28;20064;-64
2022/04/16 00:20:27;;;;;;;3.42;1.20;;;10.80;99.90;;;;;;5055031;28;20040;-64
2022/04/16 00:22:53;;;;;;;1.45;1.10;;;10.70;99.90;;;;;;5054660;28;20123;-65
2022/04/16 00:25:19;;;;;;;2.28;1.20;;;10.70;99.90;;;;;;5036719;28;20475;-64
2022/04/16 00:27:48;;;;;;;1.58;1.20;;;10.60;99.90;;;;;;5055124;28;20033;-64
2022/04/16 00:30:15;;;;;;;2.35;1.08;;;10.60;99.90;;;;;;5037437;28;20021;-65
2022/04/16 00:32:40;;;;;;;2.42;1.40;;;10.50;99.90;;;;;;5056144;28;20013;-66
2022/04/16 00:35:09;;;;;;;1.67;1.20;;;10.50;99.90;;;;;;5055587;28;20082;-65
2022/04/16 00:37:35;;;;;;;1.40;1.10;;;10.40;99.90;;;;;;5055190;28;20021;-65
2022/04/16 00:40:00;;;;;;;2.00;1.47;;;10.40;99.90;;;;;;5038338;28;20442;-65
2022/04/16 00:42:38;;;;;;;1.40;1.10;;;10.30;99.90;;;;;;5056130;28;20021;-65
2022/04/16 00:45:04;;;;;;;1.42;1.10;;;10.30;99.90;;;;;;5055840;28;20698;-64
2022/04/16 00:47:30;;;;;;;1.77;1.30;;;10.30;99.90;;;;;;5057296;28;20071;-65
2022/04/16 00:49:56;;;;;;;1.67;1.40;;;10.30;99.90;;;;;;5039058;28;20029;-64
2022/04/16 00:52:21;;;;;;;1.77;1.40;;;10.20;99.90;;;;;;5037938;28;20080;-64
2022/04/16 00:54:50;;;;;;;2.57;1.07;;;10.20;99.90;;;;;;5055528;28;20029;-65
2022/04/16 00:57:17;;;;;;;1.75;1.48;;;10.20;99.90;;;;;;5056822;28;20028;-65
2022/04/16 00:59:42;;;;;;;1.95;1.40;;;10.10;99.90;;;;;;5056895;28;20021;-65
2022/04/16 01:02:09;;;;;;;2.37;1.33;;;10.10;99.90;;;;;;5057398;28;20478;-64
2022/04/16 01:04:35;;;;;;;1.65;1.38;;;10.00;99.90;;;;;;5056131;28;20021;-65
2022/04/16 01:07:01;;;;;;;1.48;1.27;;;10.00;99.90;;;;;;5039119;28;20056;-64
2022/04/16 01:09:26;;;;;;;1.70;1.40;;;9.90;99.90;;;;;;5056834;28;20029;-64
2022/04/16 01:11:52;;;;;;;3.07;1.53;;;9.90;99.90;;;;;;5057173;28;20032;-64
2022/04/16 01:14:19;;;;;;;1.83;1.40;;;9.80;99.90;;;;;;5058037;28;20025;-64
2022/04/16 01:16:45;;;;;;;2.65;1.48;;;9.80;99.90;;;;;;5058916;28;20021;-64
2022/04/16 01:19:11;;;;;;;2.17;1.35;;;9.80;99.90;;;;;;5059751;28;20052;-66
2022/04/16 01:21:37;;;;;;;1.83;1.40;;;9.70;99.90;;;;;;5061946;28;20048;-64
2022/04/16 01:24:05;;;;;;;2.13;1.58;;;9.60;99.90;;;;;;5056317;28;20024;-65
2022/04/16 01:26:31;;;;;;;1.83;1.35;;;9.60;99.90;;;;;;5056289;28;20039;-64
2022/04/16 01:28:57;;;;;;;2.47;1.40;;;9.60;99.90;;;;;;5037770;28;20025;-63
2022/04/16 01:31:22;;;;;;;2.22;1.60;;;9.50;99.90;;;;;;5054664;28;20052;-65
2022/04/16 01:33:48;;;;;;;2.70;1.63;;;9.50;99.90;;;;;;5053907;28;20110;-65
2022/04/16 01:36:13;;;;;;;1.50;1.37;;;9.50;99.90;;;;;;5053331;28;20039;-65
2022/04/16 01:38:39;;;;;;;2.37;1.50;;;9.40;99.90;;;;;;5053573;28;20025;-65
2022/04/16 01:41:04;;;;;;;1.60;1.30;;;9.40;99.90;;;;;;5053841;28;20040;-65
2022/04/16 01:43:30;;;;;;;4.40;1.87;;;9.30;99.90;;;;;;5036447;28;20037;-64
2022/04/16 01:45:57;;;;;;;2.97;1.45;;;9.20;99.90;;;;;;5053818;28;20059;-64
2022/04/16 01:48:27;;;;;;;2.10;1.50;;;9.20;99.90;;;;;;5053993;28;20389;-65
2022/04/16 01:50:53;;;;;;;3.17;1.45;;;9.20;99.90;;;;;;5035491;28;20032;-65
2022/04/16 01:53:19;;;;;;;2.22;1.85;;;9.20;99.90;;;;;;5035624;28;20510;-65
2022/04/16 01:55:45;;;;;;;2.17;1.67;;;9.20;99.90;;;;;;5052807;28;20025;-65
2022/04/16 01:58:13;;;;;;;2.97;1.30;;;9.20;99.90;;;;;;5052748;28;20025;-65
2022/04/16 02:00:39;;;;;;;1.92;1.38;;;9.10;99.90;;;;;;5053863;28;20021;-64
2022/04/16 02:03:05;;;;;;;2.10;1.67;;;9.10;99.90;;;;;;5053008;28;20463;-64
2022/04/16 02:05:30;;;;;;;2.53;1.93;;;9.00;99.90;;;;;;5034958;28;20064;-65
2022/04/16 02:07:56;;;;;;;2.87;1.80;;;9.00;99.90;;;;;;5034773;28;20023;-64
2022/04/16 02:10:22;;;;;;;2.13;1.60;;;9.00;99.90;;;;;;5052761;28;20767;-64
2022/04/16 02:12:48;;;;;;;2.22;1.52;;;8.90;99.90;;;;;;5052845;28;20048;-65
2022/04/16 02:15:14;;;;;;;3.00;1.40;;;8.90;99.90;;;;;;5053137;28;20036;-65
2022/04/16 02:17:40;;;;;;;2.53;1.50;;;8.90;99.90;;;;;;5053012;28;20033;-64
2022/04/16 02:20:07;;;;;;;2.10;1.50;;;8.80;99.90;;;;;;5053046;28;20272;-64
2022/04/16 02:22:43;;;;;;;2.00;1.45;;;8.80;99.90;;;;;;5052509;28;20021;-64
2022/04/16 02:25:10;;;;;;;2.70;1.80;;;8.80;99.90;;;;;;5052763;28;20029;-66
2022/04/16 02:27:35;;;;;;;2.33;1.75;;;8.80;99.90;;;;;;5052912;28;20018;-65
2022/04/16 02:30:07;;;;;;;1.90;1.70;;;8.70;99.90;;;;;;5052593;28;20438;-65
2022/04/16 02:32:38;;;;;;;2.78;1.80;;;8.70;99.90;;;;;;5052974;28;20105;-65
2022/04/16 02:35:06;;;;;;;3.03;2.13;;;8.70;99.90;;;;;;5034863;28;20083;-65
2022/04/16 02:37:32;;;;;;;2.50;1.52;;;8.70;99.90;;;;;;5052732;28;20076;-65
2022/04/16 02:39:58;;;;;;;2.65;1.95;;;8.70;99.90;;;;;;5052769;28;20476;-65
2022/04/16 02:42:23;;;;;;;2.40;1.90;;;8.60;99.90;;;;;;5034769;28;20613;-65
2022/04/16 02:47:33;;;;;;;2.03;1.73;;;8.60;99.90;;;;;;5052538;28;20135;-65
2022/04/16 02:49:58;;;;;;;3.03;1.77;;;8.60;99.90;;;;;;5052787;28;20047;-65
2022/04/16 02:52:25;;;;;;;1.77;1.47;;;8.60;99.90;;;;;;5052629;28;20463;-66
2022/04/16 02:54:52;;;;;;;2.25;1.80;;;8.60;99.90;;;;;;5052868;28;20028;-64
2022/04/16 02:57:18;;;;;;;1.92;1.70;;;8.50;99.90;;;;;;5035331;28;20033;-64
2022/04/16 02:59:46;;;;;;;1.95;1.67;;;8.50;99.90;;;;;;5052557;28;20089;-65
2022/04/16 03:02:12;;;;;;;2.42;1.88;;;8.50;99.90;;;;;;5053322;28;20109;-65
2022/04/16 03:04:38;;;;;;;4.93;2.00;;;8.50;99.90;;;;;;5052763;28;20025;-66
2022/04/16 03:07:04;;;;;;;1.77;1.53;;;8.40;99.90;;;;;;5052954;28;20036;-65
2022/04/16 03:09:30;;;;;;;3.13;2.00;;;8.40;99.90;;;;;;5055601;28;20433;-64
2022/04/16 03:11:55;;;;;;;2.83;1.90;;;8.40;99.90;;;;;;5055899;28;20033;-64
2022/04/16 03:19:50;;;;;;;3.28;2.13;;;8.20;99.90;;;;;;5055701;28;20031;-65
2022/04/16 03:22:15;;;;;;;3.60;2.00;;;8.30;99.90;;;;;;5038420;28;20521;-65
2022/04/16 03:24:41;;;;;;;2.43;1.90;;;8.30;99.90;;;;;;5056192;28;20037;-66
2022/04/16 03:27:07;;;;;;;2.33;1.70;;;8.20;99.90;;;;;;5039435;28;20028;-66
2022/04/16 03:29:34;;;;;;;2.53;1.98;;;8.20;99.90;;;;;;5057996;28;20027;-65
2022/04/16 03:32:00;;;;;;;3.08;2.22;;;8.20;99.90;;;;;;5058569;28;20021;-66
2022/04/16 03:34:25;;;;;;;2.40;1.92;;;8.20;99.90;;;;;;5057913;28;20028;-67
2022/04/16 03:36:51;;;;;;;2.20;1.87;;;8.20;99.90;;;;;;5057038;28;20029;-66
2022/04/16 03:39:16;;;;;;;3.00;2.17;;;8.20;99.90;;;;;;5058266;28;20068;-66
2022/04/16 03:41:42;;;;;;;2.87;2.00;;;8.10;99.90;;;;;;5057213;28;20036;-66
2022/04/16 03:44:08;;;;;;;2.63;2.13;;;8.00;99.90;;;;;;5039212;28;20025;-65
2022/04/16 03:46:33;;;;;;;3.80;2.13;;;8.00;99.90;;;;;;5057067;28;20017;-66
2022/04/16 03:49:02;;;;;;;3.40;2.17;;;8.00;99.90;;;;;;5039972;28;20047;-66
2022/04/16 03:51:27;;;;;;;2.28;1.92;;;7.90;99.90;;;;;;5057375;28;20088;-65
2022/04/16 03:53:54;;;;;;;3.97;2.10;;;7.90;99.90;;;;;;5056081;28;20109;-65
2022/04/16 04:01:47;;;;;;;3.25;1.98;;;7.90;99.90;;;;;;5056207;28;20156;-66
2022/04/16 04:04:13;;;;;;;3.63;2.30;;;7.90;99.90;;;;;;5056061;28;20181;-65
2022/04/16 04:06:39;;;;;;;3.00;2.10;;;7.90;99.90;;;;;;5055885;28;20259;-65
2022/04/16 04:09:06;;;;;;;2.53;1.73;;;7.80;99.90;;;;;;5056526;28;20017;-65
2022/04/16 04:11:32;;;;;;;3.75;2.05;;;7.90;99.90;;;;;;5062473;28;20044;-66
2022/04/16 04:13:57;;;;;;;2.87;2.27;;;7.80;99.90;;;;;;5059595;28;20447;-65
2022/04/16 04:16:23;;;;;;;3.27;2.40;;;7.80;99.90;;;;;;5058141;28;20269;-67
2022/04/16 04:18:49;;;;;;;3.10;2.20;;;7.80;99.90;;;;;;5061629;28;20029;-67
2022/04/16 04:21:14;;;;;;;2.60;2.00;;;7.80;99.90;;;;;;5064883;28;20036;-66
2022/04/16 04:23:40;;;;;;;3.20;2.33;;;7.80;99.90;;;;;;5066383;28;20035;-66
2022/04/16 04:26:05;;;;;;;2.20;1.83;;;7.80;99.90;;;;;;5064727;28;20501;-67
2022/04/16 04:28:31;;;;;;;3.63;2.20;;;7.70;99.90;;;;;;5058491;28;20029;-65
2022/04/16 04:30:57;;;;;;;4.47;2.13;;;7.80;99.90;;;;;;5056843;28;20021;-65
2022/04/16 04:33:22;;;;;;;2.78;2.30;;;7.80;99.90;;;;;;5057360;28;20399;-66
2022/04/16 04:35:51;;;;;;;4.00;2.07;;;7.80;99.90;;;;;;5039852;28;20029;-66
2022/04/16 04:38:16;;;;;;;2.85;1.88;;;7.80;99.90;;;;;;5057809;28;20021;-66
2022/04/16 04:40:42;;;;;;;2.77;2.33;;;7.80;99.90;;;;;;5058523;28;20064;-66
2022/04/16 04:43:07;;;;;;;3.83;2.40;;;7.70;99.90;;;;;;5060402;28;20025;-67
2022/04/16 04:45:33;;;;;;;2.97;2.30;;;7.70;99.90;;;;;;5058750;28;20049;-67
2022/04/16 04:47:59;;;;;;;3.75;2.40;;;7.80;99.90;;;;;;5056574;28;20051;-65
2022/04/16 04:50:24;;;;;;;4.67;2.47;;;7.80;99.90;;;;;;5037692;28;20025;-66
2022/04/16 04:52:50;;;;;;;2.77;2.10;;;7.90;99.90;;;;;;5037264;28;20078;-66
2022/04/16 04:55:15;;;;;;;2.87;2.03;;;7.90;99.90;;;;;;5036600;28;20131;-65
2022/04/16 04:57:42;;;;;;;2.53;2.00;;;8.00;99.90;;;;;;5037466;28;20091;-66
2022/04/16 05:00:09;;;;;;;2.92;2.10;;;8.00;99.90;;;;;;5055898;28;20017;-66
2022/04/16 05:02:46;;;;;;;4.28;2.33;;;8.00;99.90;;;;;;5056513;28;20056;-66
2022/04/16 05:05:14;;;;;;;3.08;2.40;;;8.00;99.90;;;;;;5056424;28;20013;-67
2022/04/16 05:07:39;;;;;;;3.08;1.90;;;8.00;99.90;;;;;;5038420;28;20116;-67
2022/04/16 05:10:06;;;;;;;3.17;2.30;;;8.00;99.90;;;;;;5056260;28;20433;-66
2022/04/16 05:12:31;;;;;;;3.08;2.15;;;8.00;99.90;;;;;;5055820;28;20025;-66
2022/04/16 05:14:57;;;;;;;2.87;2.20;;;8.10;99.90;;;;;;5037571;28;20021;-67
2022/04/16 05:17:23;;;;;;;3.20;2.10;;;8.00;99.90;;;;;;5055795;28;20029;-67
2022/04/16 05:19:48;;;;;;;4.27;2.20;;;8.00;99.90;;;;;;5038207;28;20053;-67
2022/04/16 05:22:14;;;;;;;4.40;2.50;;;8.00;99.90;;;;;;5055392;28;20426;-66
2022/04/16 05:24:39;;;;;;;4.43;2.77;;;8.00;99.90;;;;;;5055271;28;20099;-67
2022/04/16 05:27:05;;;;;;;4.10;2.30;;;8.00;99.90;;;;;;5036710;28;20021;-67
2022/04/16 05:29:48;;;;;;;8.07;2.43;;;8.00;99.90;;;;;;5055086;28;20029;-67
2022/04/16 05:32:16;;;;;;;3.45;2.40;;;8.10;99.90;;;;;;5055405;28;20032;-66
2022/04/16 05:34:42;;;;;;;4.68;1.98;;;8.10;99.90;;;;;;5036674;28;20077;-67
2022/04/16 05:37:08;;;;;;;3.22;2.25;;;8.20;99.90;;;;;;5054583;28;20029;-67
2022/04/16 05:39:33;;;;;;;3.88;2.33;;;8.20;99.90;;;;;;5035698;28;20029;-67
2022/04/16 05:41:59;;;;;;;3.65;2.10;;;8.30;99.90;;;;;;5053391;28;20032;-67
2022/04/16 05:44:25;;;;;;;2.83;2.10;;;8.30;99.90;;;;;;5035477;28;20043;-67
2022/04/16 05:46:50;;;;;;;3.10;2.30;;;8.40;99.90;;;;;;5053716;28;20021;-68
2022/04/16 05:49:16;;;;;;;4.83;2.20;;;8.50;99.90;;;;;;5053934;28;20057;-68
2022/04/16 05:51:41;;;;;;;2.87;2.13;;;8.50;99.90;;;;;;5035953;28;20487;-63
2022/04/16 05:54:07;;;;;;;3.20;2.20;;;8.60;99.90;;;;;;5053999;28;20063;-64
2022/04/16 05:56:34;;;;;;;2.67;2.03;;;8.70;99.90;;;;;;5054190;28;20025;-63
2022/04/16 05:59:00;;;;;;;4.55;2.63;;;8.70;99.90;;;;;;5057582;28;20025;-64
2022/04/16 06:01:26;;;;;;;3.40;2.08;;;8.80;99.90;;;;;;5058633;28;20467;-66
2022/04/16 06:03:52;;;;;;;3.35;2.30;;;8.80;99.90;;;;;;5036764;28;20396;-67
2022/04/16 06:06:18;;;;;;;4.17;2.70;;;8.90;99.90;;;;;;5053376;28;20028;-65
2022/04/16 06:08:43;;;;;;;3.70;2.57;;;8.90;99.90;;;;;;5053039;28;20165;-65
2022/04/16 06:11:11;;;;;;;4.03;2.43;;;8.90;99.90;;;;;;5054075;28;20309;-67
2022/04/16 06:13:37;;;;;;;6.25;2.35;;;9.00;99.90;;;;;;5053186;28;20146;-68
2022/04/16 06:16:02;;;;;;;6.00;2.37;;;9.10;99.90;;;;;;5035879;28;20375;-67
2022/04/16 06:18:28;;;;;;;4.88;2.83;;;9.10;99.90;;;;;;5034943;28;20272;-67
2022/04/16 06:20:57;;;;;;;4.40;2.60;;;9.10;99.90;;;;;;5053587;28;20356;-66
2022/04/16 06:23:22;;;;;;;3.33;2.63;;;9.20;99.90;;;;;;5053731;28;20777;-67
2022/04/16 06:25:48;;;;;;;2.80;2.20;;;9.20;99.90;;;;;;5053494;28;20067;-66
2022/04/16 06:28:14;;;;;;;3.72;2.40;;;9.30;99.90;;;;;;5054050;28;20407;-66
2022/04/16 06:30:39;;;;;;;3.90;2.80;;;9.30;99.90;;;;;;5053600;28;20443;-67
2022/04/16 06:33:05;;;;;;;3.03;2.50;;;9.40;99.90;;;;;;5053171;28;20033;-67
2022/04/16 06:35:31;;;;;;;3.27;2.60;;;9.50;99.90;;;;;;5053008;28;20129;-67
2022/04/16 06:37:57;;;;;;;4.05;2.50;;;9.60;99.90;;;;;;5035760;28;20430;-67
2022/04/16 06:40:22;;;;;;;3.70;2.73;;;9.60;99.90;;;;;;5035728;28;20029;-67
2022/04/16 06:42:48;;;;;;;3.27;2.73;;;9.70;99.90;;;;;;5053510;28;20029;-67
2022/04/16 06:45:14;;;;;;;3.60;2.38;;;9.70;99.90;;;;;;5039009;28;20029;-67
2022/04/16 06:47:40;;;;;;;5.07;3.03;;;9.80;99.90;;;;;;5039570;28;20134;-66
2022/04/16 06:50:07;;;;;;;4.75;2.70;;;9.80;99.90;;;;;;5057107;28;20017;-66
2022/04/16 06:52:33;;;;;;;4.35;2.92;;;9.90;99.90;;;;;;5039389;28;20120;-66
2022/04/16 06:54:59;;;;;;;4.70;3.43;;;9.90;99.90;;;;;;5057300;28;20086;-66
2022/04/16 06:57:25;;;;;;;5.20;3.13;;;10.00;99.90;;;;;;5056889;28;20329;-66
2022/04/16 06:59:51;;;;;;;4.15;2.67;;;10.00;99.90;;;;;;5038772;28;20036;-65
2022/04/16 07:02:16;;;;;;;3.78;2.88;;;10.10;99.90;;;;;;5057319;28;20025;-65
2022/04/16 07:04:42;;;;;;;4.77;3.10;;;10.10;99.90;;;;;;5056548;28;20025;-65
2022/04/16 07:07:11;;;;;;;4.70;2.90;;;10.20;99.90;;;;;;5056346;28;20029;-65
2022/04/16 07:09:41;;;;;;;4.07;2.90;;;10.20;99.90;;;;;;5056511;28;20108;-65
2022/04/16 07:12:09;;;;;;;6.28;3.13;;;10.30;99.90;;;;;;5056456;28;20074;-63
2022/04/16 07:14:35;;;;;;;5.22;3.55;;;10.40;99.90;;;;;;5056782;28;20025;-66
2022/04/16 07:17:01;;;;;;;6.45;3.42;;;10.50;99.90;;;;;;5056844;28;20410;-65
2022/04/16 07:19:31;;;;;;;6.80;3.88;;;10.50;99.90;;;;;;5056387;28;20029;-68
2022/04/16 07:21:57;;;;;;;4.95;3.30;;;10.60;99.90;;;;;;5056803;28;20021;-65
2022/04/16 07:24:25;;;;;;;6.25;3.38;;;10.70;99.90;;;;;;5056156;28;20037;-65
2022/04/16 07:26:53;;;;;;;6.10;3.38;;;10.70;99.90;;;;;;5056588;28;20025;-66
2022/04/16 07:29:19;;;;;;;5.82;3.70;;;10.80;99.90;;;;;;5056803;28;20024;-64
2022/04/16 07:31:45;;;;;;;4.22;3.05;;;10.90;99.90;;;;;;5056728;28;20036;-64
2022/04/16 07:34:10;;;;;;;6.30;3.50;;;10.90;99.90;;;;;;5056439;28;20021;-64
2022/04/16 07:36:36;;;;;;;6.63;3.63;;;11.00;99.90;;;;;;5057303;28;20414;-65
2022/04/16 07:39:02;;;;;;;4.47;3.23;;;11.10;99.90;;;;;;5056810;28;20096;-67
2022/04/16 07:41:28;;;;;;;6.95;4.10;;;11.10;99.90;;;;;;5056120;28;20029;-66
2022/04/16 07:43:53;;;;;;;5.60;3.93;;;11.10;99.90;;;;;;5055857;28;20036;-65
2022/04/16 07:46:22;;;;;;;5.73;3.53;;;11.10;99.90;;;;;;5055833;28;20075;-65
2022/04/16 07:49:13;;;;;;;8.85;5.38;;;11.20;99.90;;;;;;5092474;27;20161;-64
2022/04/16 07:51:39;;;;;;;7.37;4.20;;;11.20;99.90;;;;;;5092749;28;20452;-65
2022/04/16 07:54:05;;;;;;;4.80;3.60;;;11.20;99.90;;;;;;5092552;28;20107;-63
2022/04/16 07:56:30;;;;;;;6.00;4.37;;;11.30;99.90;;;;;;5090965;28;20016;-65
2022/04/16 07:58:56;;;;;;;5.83;4.13;;;11.30;99.90;;;;;;5091920;28;20048;-64
2022/04/16 08:01:22;;;;;;;6.10;4.40;;;11.30;99.90;;;;;;5091770;28;20174;-65
2022/04/16 08:03:48;;;;;;;5.47;3.70;;;11.40;99.90;;;;;;5090890;28;20254;-66
2022/04/16 08:06:13;;;;;;;5.63;3.90;;;11.50;99.90;;;;;;5090776;28;20524;-65
2022/04/16 08:08:39;;;;;;;6.00;4.27;;;11.60;99.90;;;;;;5090591;28;20489;-65
2022/04/16 08:11:04;;;;;;;4.33;3.50;;;11.60;99.90;;;;;;5090540;28;20016;-63
2022/04/16 08:13:30;;;;;;;6.85;4.18;;;11.60;99.90;;;;;;5090072;28;20020;-66
2022/04/16 08:15:56;;;;;;;7.30;4.63;;;11.70;99.90;;;;;;5089823;28;20035;-66
2022/04/16 08:18:21;;;;;;;10.40;4.70;;;11.70;99.90;;;;;;5089505;28;20035;-66
2022/04/16 08:20:47;;;;;;;6.47;3.67;;;11.80;99.90;;;;;;5089811;28;20255;-66
2022/04/16 08:23:14;;;;;;;5.23;3.87;;;11.80;99.90;;;;;;5090389;28;20030;-65
2022/04/16 08:28:06;;;;;;;5.38;3.80;;;11.80;99.90;;;;;;5093194;28;20032;-65
2022/04/16 08:30:32;;;;;;;5.75;3.80;;;11.80;99.90;;;;;;5092626;28;20068;-66
2022/04/16 08:32:58;;;;;;;5.55;4.13;;;11.90;99.90;;;;;;5093418;28;20017;-65
2022/04/16 08:35:24;;;;;;;6.28;3.75;;;11.90;99.90;;;;;;5090995;28;20395;-62
2022/04/16 08:37:50;;;;;;;6.28;4.13;;;12.00;99.90;;;;;;5090973;28;20024;-65
2022/04/16 08:40:17;;;;;;;7.78;4.28;;;12.10;99.90;;;;;;5090563;28;20032;-64
2022/04/16 08:42:47;;;;;;;10.38;4.28;;;12.20;99.90;;;;;;5090398;28;20059;-65
2022/04/16 08:45:13;;;;;;;5.95;4.00;;;12.10;99.90;;;;;;5091222;28;20028;-69
2022/04/16 08:47:39;;;;;;;6.03;3.95;;;12.20;99.90;;;;;;5100079;28;20043;-69
2022/04/16 08:50:07;;;;;;;5.40;3.78;;;12.30;99.90;;;;;;5112640;28;20020;-67
2022/04/16 08:52:35;;;;;;;5.47;3.45;;;12.50;99.90;;;;;;5113145;28;20016;-66
2022/04/16 08:55:03;;;;;;;5.82;3.88;;;12.60;99.90;;;;;;5111937;28;20027;-67
2022/04/16 08:57:29;;;;;;;5.13;3.88;;;12.70;99.90;;;;;;5113649;28;20465;-65
2022/04/16 08:59:57;;;;;;;7.00;4.60;;;12.90;99.90;;;;;;5103560;28;20032;-69
2022/04/16 09:02:26;;;;;;;7.85;3.83;;;13.40;99.90;;;;;;5099216;28;20020;-69
2022/04/16 09:05:07;;;;;;;5.05;3.83;;;14.20;99.90;;;;;;5098188;28;20028;-65
2022/04/16 09:07:55;;;;;;;5.07;3.65;;;14.00;99.90;;;;;;5097312;28;20023;-65
2022/04/16 09:10:24;;;;;;;6.72;4.20;;;13.90;99.90;;;;;;5097088;28;20024;-66
2022/04/16 09:12:51;;;;;;;5.28;3.80;;;14.10;99.90;;;;;;5096677;28;20020;-66
2022/04/16 09:15:18;;;;;;;8.25;4.50;;;13.70;99.90;;;;;;5097429;28;20024;-62
2022/04/16 09:17:54;;;;;;;7.93;5.75;;;13.60;99.90;;;;;;5098091;28;20020;-65
2022/04/16 09:20:20;;;;;;;6.03;3.88;;;14.00;99.90;;;;;;5098202;28;20048;-64
2022/04/16 09:22:49;;;;;;;6.82;4.35;;;14.50;99.60;;;;;;5097918;28;20549;-65
2022/04/16 09:25:18;;;;;;;5.30;3.78;;;15.20;97.80;;;;;;5098040;28;20020;-63
2022/04/16 09:27:46;;;;;;;6.20;4.47;;;15.40;96.90;;;;;;5100746;28;20032;-65
2022/04/16 09:30:29;;;;;;;5.90;4.07;;;15.90;96.50;;;;;;5101282;28;20468;-67
2022/04/16 09:32:59;;;;;;;6.25;4.25;;;17.70;93.70;;;;;;5103402;28;20034;-64
2022/04/16 09:35:29;;;;;;;5.88;4.28;;;19.10;90.40;;;;;;5103570;28;20024;-66
2022/04/16 09:37:57;;;;;;;7.82;4.30;;;19.90;85.60;;;;;;5100984;28;20067;-65
2022/04/16 09:40:31;;;;;;;5.90;3.70;;;20.40;81.70;;;;;;5097397;28;20487;-64
2022/04/16 09:43:01;;;;;;;6.68;3.60;;;20.40;79.30;;;;;;5095473;28;20024;-64
2022/04/16 09:45:28;;;;;;;5.13;3.55;;;19.90;79.50;;;;;;5097540;28;20390;-65
2022/04/16 09:47:53;;;;;;;4.35;3.53;;;19.90;77.30;;;;;;5106375;28;20039;-63
2022/04/16 09:50:21;;;;;;;4.00;3.58;;;18.70;79.30;;;;;;5105455;28;20481;-64
2022/04/16 09:52:53;;;;;;;4.75;3.60;;;18.60;80.60;;;;;;5102134;28;20032;-63
2022/04/16 09:55:23;;;;;;;5.47;4.28;;;18.60;80.20;;;;;;5106448;28;20082;-64
2022/04/16 09:57:59;;;;;;;8.43;4.03;;;18.60;80.00;;;;;;5108642;28;20031;-63
2022/04/16 10:00:26;;;;;;;5.13;4.10;;;18.30;80.90;;;;;;5107685;28;20031;-65
2022/04/16 10:02:54;;;;;;;4.95;4.25;;;18.40;80.30;;;;;;5100742;28;20024;-64
2022/04/16 10:05:24;;;;;;;5.95;3.97;;;17.50;81.20;;;;;;5095483;28;20085;-63
2022/04/16 10:07:53;;;;;;;5.47;4.45;;;18.20;80.10;;;;;;5094185;28;20024;-62
2022/04/16 10:10:40;;;;;;;4.68;3.55;;;18.00;79.50;;;;;;5094881;28;20050;-63
2022/04/16 10:13:09;;;;;;;4.68;3.92;;;17.90;79.00;;;;;;5095052;28;20028;-62
2022/04/16 10:15:46;;;;;;;5.35;3.60;;;19.10;78.20;;;;;;5094786;28;20016;-63
2022/04/16 10:18:12;;;;;;;6.15;4.30;;;19.90;74.90;;;;;;5095164;28;20473;-66
2022/04/16 10:20:49;;;;;;;5.95;3.47;;;19.80;74.50;;;;;;5095099;28;20039;-62
2022/04/16 10:23:31;;;;;;;3.92;3.53;;;19.30;73.90;;;;;;5094637;28;20491;-61
2022/04/16 10:26:05;;;;;;;5.30;3.70;;;18.90;75.20;;;;;;5094943;28;20032;-60
2022/04/16 10:28:35;;;;;;;6.95;3.63;;;19.50;74.10;;;;;;5094845;28;20023;-60
2022/04/16 10:31:01;;;;;;;5.32;3.45;;;20.20;72.60;;;;;;5094279;28;20024;-63
2022/04/16 10:33:28;;;;;;;3.60;3.08;;;21.10;70.20;;;;;;5095060;28;20028;-64
2022/04/16 10:35:58;;;;;;;4.35;3.05;;;22.40;67.80;;;;;;5094378;28;20028;-65
2022/04/16 10:38:36;;;;;;;6.28;3.20;;;23.50;65.10;;;;;;5094267;28;20081;-63
2022/04/16 10:41:10;;;;;;;3.50;3.03;;;23.40;63.20;;;;;;5094830;28;20032;-61
2022/04/16 10:43:35;;;;;;;2.65;2.30;;;22.90;63.10;;;;;;5094456;28;20032;-61
2022/04/16 10:46:05;;;;;;;;;;;21.50;63.30;;;;;;5094544;28;20379;-62
2022/04/16 10:48:38;;;;;;;3.72;2.70;;;20.70;64.00;;;;;;5094309;28;20326;-65
2022/04/16 10:51:05;;;;;;;3.25;2.15;;;20.90;64.80;;;;;;5094520;28;20468;-64
2022/04/16 10:53:35;;;;;;;4.07;3.45;;;20.20;65.20;;;;;;5094469;28;20028;-63
2022/04/16 10:56:20;;;;;;;4.72;2.85;;;18.10;70.40;;;;;;5094260;28;20368;-63
2022/04/16 10:58:48;;;;;;;5.28;2.40;;;17.60;71.30;;;;;;5092723;28;20076;-62
2022/04/16 11:01:24;;;;;;;3.75;2.78;;;17.70;71.40;;;;;;5093745;28;20024;-63
2022/04/16 11:03:50;;;;;;;5.50;2.27;;;17.00;71.70;;;;;;5093926;28;20024;-62
2022/04/16 11:06:16;;;;;;;3.40;2.60;;;16.50;72.70;;;;;;5093980;28;20179;-63
2022/04/16 11:08:45;;;;;;;4.03;2.30;;;16.20;75.30;;;;;;5093592;28;20028;-64
2022/04/16 11:11:13;;;;;;;4.38;2.30;;;16.40;75.20;;;;;;5093639;28;20433;-63
2022/04/16 11:13:40;;;;;;;2.88;2.22;;;16.50;75.40;;;;;;5093832;28;20059;-63
2022/04/16 11:16:06;;;;;;;4.20;2.10;;;16.50;74.30;;;;;;5094528;28;20510;-63
2022/04/16 11:18:43;;;;;;;2.72;1.77;;;15.80;74.40;;;;;;5093787;28;20062;-62
2022/04/16 11:21:13;;;;;;;;;;;15.60;75.30;;;;;;5094628;28;20546;-62
2022/04/16 11:23:42;;;;;;;4.25;2.22;;;15.30;75.10;;;;;;5093763;28;19904;-63
2022/04/16 11:34:43;;;;;;;3.13;2.05;;;14.80;75.50;;;;;;5093677;28;20053;-62
2022/04/16 11:37:09;;;;;;;4.20;2.27;;;14.70;76.30;;;;;;5093318;28;20135;-62
2022/04/16 11:39:35;;;;;;;3.13;2.13;;;14.50;77.10;;;;;;5093350;28;20115;-62
2022/04/16 11:42:07;;;;;;;4.47;2.20;;;14.60;77.10;;;;;;5093340;28;20026;-62
2022/04/16 11:44:38;;;;;;;4.13;2.20;;;14.50;76.40;;;;;;5093614;28;20024;-63
2022/04/16 11:47:25;;;;;;;4.20;1.85;;;14.50;76.20;;;;;;5093281;28;20065;-64
2022/04/16 11:50:05;;;;;;;2.55;2.17;;;14.60;77.10;;;;;;5093471;28;20101;-62
2022/04/16 11:52:33;;;;;;;2.35;1.80;;;14.80;76.90;;;;;;5093870;28;20032;-64
2022/04/16 11:55:07;;;;;;;2.63;2.20;;;14.90;75.80;;;;;;5093467;28;20461;-65
2022/04/16 11:57:34;;;;;;;3.13;1.67;;;14.90;75.30;;;;;;5094706;28;20180;-64
2022/04/16 12:00:04;;;;;;;3.15;1.90;;;14.60;75.40;;;;;;5094579;28;20024;-66
2022/04/16 12:02:35;;;;;;;2.58;1.73;;;14.80;75.80;;;;;;5093939;28;20112;-64
2022/04/16 12:05:09;;;;;;;3.13;2.00;;;15.00;74.50;;;;;;5093585;28;20028;-66
2022/04/16 12:07:34;;;;;;;6.22;2.15;;;15.10;73.70;;;;;;5093008;28;20074;-64
2022/04/16 12:10:07;;;;;;;3.03;1.63;;;15.00;74.20;;;;;;5093411;28;20350;-67
2022/04/16 12:12:45;;;;;;;2.00;1.60;;;14.90;74.80;;;;;;5093491;28;20028;-63
2022/04/16 12:15:11;;;;;;;2.75;2.03;;;14.80;74.70;;;;;;5093104;28;20023;-63
2022/04/16 12:17:42;;;;;;;3.75;1.88;;;14.80;74.60;;;;;;5093109;28;20059;-64
2022/04/16 12:20:10;;;;;;;2.58;2.13;;;14.90;75.00;;;;;;5094627;28;20031;-68
2022/04/16 12:23:00;;;;;;;2.33;1.70;;;15.00;74.00;;;;;;5093956;28;20040;-66
2022/04/16 12:25:26;;;;;;;3.10;1.92;;;14.90;73.50;;;;;;5094044;28;20028;-65
2022/04/16 12:27:54;;;;;;;2.45;1.50;;;14.80;71.70;;;;;;5093041;28;20526;-64
2022/04/16 12:30:20;;;;;;;2.53;1.70;;;14.70;72.10;;;;;;5094574;28;20426;-63
2022/04/16 12:32:59;;;;;;;2.60;2.13;;;14.70;72.30;;;;;;5093416;28;20345;-63
2022/04/16 12:35:26;;;;;;;2.78;2.08;;;14.70;73.30;;;;;;5096742;28;20385;-64
2022/04/16 12:37:54;;;;;;;3.17;1.75;;;14.80;73.60;;;;;;5097609;28;20023;-67
2022/04/16 12:40:21;;;;;;;3.15;1.95;;;14.80;72.40;;;;;;5097348;28;20027;-63
2022/04/16 12:42:47;;;;;;;4.10;1.77;;;14.80;72.90;;;;;;5095721;28;20438;-63
2022/04/16 12:45:13;;;;;;;;;;;14.90;72.20;;;;;;5096787;28;20081;-66
2022/04/16 12:47:38;;;;;;;3.58;2.20;;;14.90;72.20;;;;;;5095099;28;19912;-64
2022/04/16 12:50:05;;;;;;;5.70;2.23;;;15.00;71.60;;;;;;5096450;28;20028;-64
2022/04/16 12:52:30;;;;;;;3.53;2.35;;;15.10;71.00;;;;;;5096233;28;20020;-64
2022/04/16 12:54:56;;;;;;;2.93;1.93;;;15.00;69.90;;;;;;5094598;28;20039;-63
2022/04/16 12:57:21;;;;;;;5.13;2.10;;;15.00;69.40;;;;;;5095213;28;20048;-64
2022/04/16 12:59:47;;;;;;;3.73;2.17;;;15.00;69.50;;;;;;5096180;28;20385;-64
2022/04/16 13:02:12;;;;;;;4.37;2.40;;;14.90;69.70;;;;;;5096328;28;20480;-64
2022/04/16 13:04:38;;;;;;;2.87;1.97;;;14.90;69.70;;;;;;5096201;28;20547;-64
2022/04/16 13:07:04;;;;;;;4.10;2.97;;;15.10;69.80;;;;;;5096328;28;20020;-64
2022/04/16 13:09:29;;;;;;;2.85;2.03;;;15.10;69.50;;;;;;5096348;28;20560;-63
2022/04/16 13:11:56;;;;;;;2.77;1.97;;;15.00;68.80;;;;;;5095875;28;20070;-63
2022/04/16 13:14:22;;;;;;;3.38;2.35;;;15.00;69.10;;;;;;5096160;28;20045;-64
2022/04/16 13:16:48;;;;;;;3.72;2.10;;;15.00;69.60;;;;;;5097752;28;20495;-65
2022/04/16 13:19:13;;;;;;;2.85;2.10;;;15.00;70.50;;;;;;5095777;28;20028;-66